sensor_id;sensor_type;location;lat;lon;timestamp;P1;durP1;ratioP1;P2;durP2;ratioP2
78131;SDS011;67381;47.672;9.380;2023-04-03T00:00:50;8.00;;;3.75;;
78131;SDS011;67381;47.672;9.380;2023-04-03T00:03:18;6.05;;;3.95;;
78131;SDS011;67381;47.672;9.380;2023-04-03T00:05:46;5.88;;;4.00;;
78131;SDS011;67381;47.672;9.380;2023-04-03T00:08:13;7.28;;;4.50;;
78131;SDS011;67381;47.672;9.380;2023-04-03T00:10:41;4.85;;;3.35;;
78131;SDS011;67381;47.672;9.380;2023-04-03T00:13:09;5.13;;;3.35;;
78131;SDS011;67381;47.672;9.380;2023-04-03T00:15:36;5.88;;;3.38;;
78131;SDS011;67381;47.672;9.380;2023-04-03T00:18:04;5.20;;;3.58;;
78131;SDS011;67381;47.672;9.380;2023-04-03T00:20:31;4.85;;;3.10;;
78131;SDS011;67381;47.672;9.380;2023-04-03T00:22:59;4.53;;;2.90;;
78131;SDS011;67381;47.672;9.380;2023-04-03T00:25:27;5.32;;;2.85;;
78131;SDS011;67381;47.672;9.380;2023-04-03T00:27:54;4.20;;;2.53;;
78131;SDS011;67381;47.672;9.380;2023-04-03T00:30:22;5.72;;;2.80;;
78131;SDS011;67381;47.672;9.380;2023-04-03T00:32:50;7.03;;;2.75;;
78131;SDS011;67381;47.672;9.380;2023-04-03T00:35:18;4.13;;;2.75;;
78131;SDS011;67381;47.672;9.380;2023-04-03T00:37:47;5.60;;;2.95;;
78131;SDS011;67381;47.672;9.380;2023-04-03T00:40:15;4.40;;;2.50;;
78131;SDS011;67381;47.672;9.380;2023-04-03T00:42:43;5.63;;;2.63;;
78131;SDS011;67381;47.672;9.380;2023-04-03T00:47:44;4.50;;;2.83;;
78131;SDS011;67381;47.672;9.380;2023-04-03T00:50:11;4.72;;;3.05;;
78131;SDS011;67381;47.672;9.380;2023-04-03T00:52:39;4.88;;;3.20;;
78131;SDS011;67381;47.672;9.380;2023-04-03T00:55:07;4.03;;;2.35;;
78131;SDS011;67381;47.672;9.380;2023-04-03T00:57:35;4.45;;;2.55;;
78131;SDS011;67381;47.672;9.380;2023-04-03T01:00:07;4.35;;;2.40;;
78131;SDS011;67381;47.672;9.380;2023-04-03T01:02:36;4.70;;;2.63;;
78131;SDS011;67381;47.672;9.380;2023-04-03T01:05:04;4.53;;;2.45;;
78131;SDS011;67381;47.672;9.380;2023-04-03T01:07:33;4.35;;;2.55;;
78131;SDS011;67381;47.672;9.380;2023-04-03T01:10:04;3.78;;;2.40;;
78131;SDS011;67381;47.672;9.380;2023-04-03T01:12:34;4.38;;;2.38;;
78131;SDS011;67381;47.672;9.380;2023-04-03T01:15:07;4.70;;;2.35;;
78131;SDS011;67381;47.672;9.380;2023-04-03T01:17:47;4.72;;;2.80;;
78131;SDS011;67381;47.672;9.380;2023-04-03T01:28:10;5.75;;;2.67;;
78131;SDS011;67381;47.672;9.380;2023-04-03T01:33:37;5.10;;;3.40;;
78131;SDS011;67381;47.672;9.380;2023-04-03T01:36:05;4.97;;;3.08;;
78131;SDS011;67381;47.672;9.380;2023-04-03T01:38:33;5.28;;;3.30;;
78131;SDS011;67381;47.672;9.380;2023-04-03T01:41:00;6.05;;;3.13;;
78131;SDS011;67381;47.672;9.380;2023-04-03T01:43:27;6.93;;;3.15;;
78131;SDS011;67381;47.672;9.380;2023-04-03T01:45:55;6.00;;;3.75;;
78131;SDS011;67381;47.672;9.380;2023-04-03T01:48:22;5.25;;;3.15;;
78131;SDS011;67381;47.672;9.380;2023-04-03T01:50:49;7.10;;;3.97;;
78131;SDS011;67381;47.672;9.380;2023-04-03T01:53:17;5.28;;;3.38;;
78131;SDS011;67381;47.672;9.380;2023-04-03T01:55:45;7.15;;;3.70;;
78131;SDS011;67381;47.672;9.380;2023-04-03T01:58:12;6.25;;;3.55;;
78131;SDS011;67381;47.672;9.380;2023-04-03T02:00:39;5.50;;;3.63;;
78131;SDS011;67381;47.672;9.380;2023-04-03T02:03:06;6.72;;;4.00;;
78131;SDS011;67381;47.672;9.380;2023-04-03T02:05:34;5.65;;;3.53;;
78131;SDS011;67381;47.672;9.380;2023-04-03T02:08:01;7.05;;;3.65;;
78131;SDS011;67381;47.672;9.380;2023-04-03T02:10:29;6.50;;;3.83;;
78131;SDS011;67381;47.672;9.380;2023-04-03T02:12:56;8.10;;;4.28;;
78131;SDS011;67381;47.672;9.380;2023-04-03T02:15:23;6.55;;;3.42;;
78131;SDS011;67381;47.672;9.380;2023-04-03T02:17:50;5.80;;;3.53;;
78131;SDS011;67381;47.672;9.380;2023-04-03T02:20:18;5.28;;;3.05;;
78131;SDS011;67381;47.672;9.380;2023-04-03T02:22:45;7.50;;;3.70;;
78131;SDS011;67381;47.672;9.380;2023-04-03T02:25:12;5.68;;;3.85;;
78131;SDS011;67381;47.672;9.380;2023-04-03T02:27:40;6.43;;;3.80;;
78131;SDS011;67381;47.672;9.380;2023-04-03T02:30:08;8.77;;;4.18;;
78131;SDS011;67381;47.672;9.380;2023-04-03T02:32:37;7.47;;;3.90;;
78131;SDS011;67381;47.672;9.380;2023-04-03T02:35:04;6.05;;;3.67;;
78131;SDS011;67381;47.672;9.380;2023-04-03T02:37:32;5.93;;;3.75;;
78131;SDS011;67381;47.672;9.380;2023-04-03T02:40:00;5.65;;;3.83;;
78131;SDS011;67381;47.672;9.380;2023-04-03T02:42:27;6.35;;;4.20;;
78131;SDS011;67381;47.672;9.380;2023-04-03T02:44:54;6.82;;;3.92;;
78131;SDS011;67381;47.672;9.380;2023-04-03T02:47:22;5.78;;;3.80;;
78131;SDS011;67381;47.672;9.380;2023-04-03T02:49:49;9.15;;;4.32;;
78131;SDS011;67381;47.672;9.380;2023-04-03T02:52:16;6.70;;;3.70;;
78131;SDS011;67381;47.672;9.380;2023-04-03T02:54:44;6.93;;;4.20;;
78131;SDS011;67381;47.672;9.380;2023-04-03T02:57:11;5.88;;;3.45;;
78131;SDS011;67381;47.672;9.380;2023-04-03T02:59:38;6.22;;;3.95;;
78131;SDS011;67381;47.672;9.380;2023-04-03T03:02:08;6.15;;;3.85;;
78131;SDS011;67381;47.672;9.380;2023-04-03T03:04:35;5.53;;;3.42;;
78131;SDS011;67381;47.672;9.380;2023-04-03T03:07:03;5.60;;;3.15;;
78131;SDS011;67381;47.672;9.380;2023-04-03T03:09:30;6.28;;;3.85;;
78131;SDS011;67381;47.672;9.380;2023-04-03T03:11:58;7.90;;;3.90;;
78131;SDS011;67381;47.672;9.380;2023-04-03T03:14:25;5.28;;;3.58;;
78131;SDS011;67381;47.672;9.380;2023-04-03T03:16:52;5.72;;;3.45;;
78131;SDS011;67381;47.672;9.380;2023-04-03T03:19:19;6.90;;;4.43;;
78131;SDS011;67381;47.672;9.380;2023-04-03T03:21:47;7.00;;;3.80;;
78131;SDS011;67381;47.672;9.380;2023-04-03T03:24:14;5.95;;;3.45;;
78131;SDS011;67381;47.672;9.380;2023-04-03T03:26:42;6.13;;;4.03;;
78131;SDS011;67381;47.672;9.380;2023-04-03T03:29:10;8.82;;;3.60;;
78131;SDS011;67381;47.672;9.380;2023-04-03T03:31:37;6.13;;;3.63;;
78131;SDS011;67381;47.672;9.380;2023-04-03T03:34:06;6.05;;;3.30;;
78131;SDS011;67381;47.672;9.380;2023-04-03T03:36:33;4.80;;;2.65;;
78131;SDS011;67381;47.672;9.380;2023-04-03T03:39:00;5.93;;;3.08;;
78131;SDS011;67381;47.672;9.380;2023-04-03T03:41:27;5.93;;;3.40;;
78131;SDS011;67381;47.672;9.380;2023-04-03T03:43:55;4.65;;;2.90;;
78131;SDS011;67381;47.672;9.380;2023-04-03T03:46:22;5.00;;;2.90;;
78131;SDS011;67381;47.672;9.380;2023-04-03T03:48:49;4.97;;;2.80;;
78131;SDS011;67381;47.672;9.380;2023-04-03T03:51:16;4.57;;;3.00;;
78131;SDS011;67381;47.672;9.380;2023-04-03T03:53:43;6.10;;;3.47;;
78131;SDS011;67381;47.672;9.380;2023-04-03T03:56:11;6.40;;;2.90;;
78131;SDS011;67381;47.672;9.380;2023-04-03T03:58:38;5.75;;;3.10;;
78131;SDS011;67381;47.672;9.380;2023-04-03T04:01:06;6.10;;;3.22;;
78131;SDS011;67381;47.672;9.380;2023-04-03T04:03:33;6.47;;;3.03;;
78131;SDS011;67381;47.672;9.380;2023-04-03T04:06:01;6.35;;;2.72;;
78131;SDS011;67381;47.672;9.380;2023-04-03T04:08:28;4.65;;;2.88;;
78131;SDS011;67381;47.672;9.380;2023-04-03T04:10:55;6.68;;;3.50;;
78131;SDS011;67381;47.672;9.380;2023-04-03T04:13:23;4.03;;;2.60;;
78131;SDS011;67381;47.672;9.380;2023-04-03T04:15:50;5.07;;;2.88;;
78131;SDS011;67381;47.672;9.380;2023-04-03T04:18:17;4.60;;;2.63;;
78131;SDS011;67381;47.672;9.380;2023-04-03T04:20:46;4.78;;;2.70;;
78131;SDS011;67381;47.672;9.380;2023-04-03T04:23:14;6.80;;;3.22;;
78131;SDS011;67381;47.672;9.380;2023-04-03T04:25:41;6.88;;;3.15;;
78131;SDS011;67381;47.672;9.380;2023-04-03T04:28:12;6.43;;;2.85;;
78131;SDS011;67381;47.672;9.380;2023-04-03T04:30:39;6.15;;;2.92;;
78131;SDS011;67381;47.672;9.380;2023-04-03T04:33:06;5.00;;;3.10;;
78131;SDS011;67381;47.672;9.380;2023-04-03T04:35:34;4.85;;;2.72;;
78131;SDS011;67381;47.672;9.380;2023-04-03T04:38:01;5.88;;;3.35;;
78131;SDS011;67381;47.672;9.380;2023-04-03T04:40:29;6.03;;;3.25;;
78131;SDS011;67381;47.672;9.380;2023-04-03T04:42:56;5.05;;;3.10;;
78131;SDS011;67381;47.672;9.380;2023-04-03T04:45:24;5.25;;;3.05;;
78131;SDS011;67381;47.672;9.380;2023-04-03T04:47:51;4.85;;;2.88;;
78131;SDS011;67381;47.672;9.380;2023-04-03T04:50:19;5.47;;;2.85;;
78131;SDS011;67381;47.672;9.380;2023-04-03T04:52:47;5.88;;;3.15;;
78131;SDS011;67381;47.672;9.380;2023-04-03T04:55:14;5.72;;;3.22;;
78131;SDS011;67381;47.672;9.380;2023-04-03T04:57:41;5.80;;;3.15;;
78131;SDS011;67381;47.672;9.380;2023-04-03T05:00:08;7.53;;;3.40;;
78131;SDS011;67381;47.672;9.380;2023-04-03T05:02:36;5.97;;;2.95;;
78131;SDS011;67381;47.672;9.380;2023-04-03T05:05:03;8.68;;;2.72;;
78131;SDS011;67381;47.672;9.380;2023-04-03T05:07:31;5.93;;;3.20;;
78131;SDS011;67381;47.672;9.380;2023-04-03T05:09:58;5.00;;;2.72;;
78131;SDS011;67381;47.672;9.380;2023-04-03T05:12:25;4.43;;;2.95;;
78131;SDS011;67381;47.672;9.380;2023-04-03T05:14:53;4.68;;;2.75;;
78131;SDS011;67381;47.672;9.380;2023-04-03T05:17:20;5.07;;;2.88;;
78131;SDS011;67381;47.672;9.380;2023-04-03T05:19:47;6.05;;;3.10;;
78131;SDS011;67381;47.672;9.380;2023-04-03T05:22:14;5.45;;;3.05;;
78131;SDS011;67381;47.672;9.380;2023-04-03T05:24:42;5.15;;;3.17;;
78131;SDS011;67381;47.672;9.380;2023-04-03T05:27:09;5.85;;;3.05;;
78131;SDS011;67381;47.672;9.380;2023-04-03T05:29:36;4.85;;;2.58;;
78131;SDS011;67381;47.672;9.380;2023-04-03T05:32:03;5.32;;;3.38;;
78131;SDS011;67381;47.672;9.380;2023-04-03T05:34:31;7.15;;;3.22;;
78131;SDS011;67381;47.672;9.380;2023-04-03T05:36:58;4.82;;;3.20;;
78131;SDS011;67381;47.672;9.380;2023-04-03T05:39:25;5.13;;;2.97;;
78131;SDS011;67381;47.672;9.380;2023-04-03T05:41:52;5.80;;;3.00;;
78131;SDS011;67381;47.672;9.380;2023-04-03T05:44:20;5.28;;;2.50;;
78131;SDS011;67381;47.672;9.380;2023-04-03T05:46:47;7.15;;;2.72;;
78131;SDS011;67381;47.672;9.380;2023-04-03T05:49:14;4.68;;;2.75;;
78131;SDS011;67381;47.672;9.380;2023-04-03T05:51:41;6.15;;;3.33;;
78131;SDS011;67381;47.672;9.380;2023-04-03T05:54:10;5.30;;;2.85;;
78131;SDS011;67381;47.672;9.380;2023-04-03T05:56:39;5.10;;;3.00;;
78131;SDS011;67381;47.672;9.380;2023-04-03T05:59:07;4.57;;;2.78;;
78131;SDS011;67381;47.672;9.380;2023-04-03T06:01:34;4.60;;;2.58;;
78131;SDS011;67381;47.672;9.380;2023-04-03T06:04:01;7.05;;;2.90;;
78131;SDS011;67381;47.672;9.380;2023-04-03T06:06:49;5.47;;;2.72;;
78131;SDS011;67381;47.672;9.380;2023-04-03T06:09:21;4.35;;;2.22;;
78131;SDS011;67381;47.672;9.380;2023-04-03T06:11:50;5.75;;;3.00;;
78131;SDS011;67381;47.672;9.380;2023-04-03T06:14:18;4.55;;;2.28;;
78131;SDS011;67381;47.672;9.380;2023-04-03T06:16:45;15.02;;;3.92;;
78131;SDS011;67381;47.672;9.380;2023-04-03T06:19:12;5.00;;;2.83;;
78131;SDS011;67381;47.672;9.380;2023-04-03T06:21:39;4.93;;;2.90;;
78131;SDS011;67381;47.672;9.380;2023-04-03T06:24:07;5.38;;;2.95;;
78131;SDS011;67381;47.672;9.380;2023-04-03T06:26:34;5.70;;;2.78;;
78131;SDS011;67381;47.672;9.380;2023-04-03T06:29:02;5.57;;;2.95;;
78131;SDS011;67381;47.672;9.380;2023-04-03T06:31:29;5.97;;;2.90;;
78131;SDS011;67381;47.672;9.380;2023-04-03T06:33:56;7.38;;;3.55;;
78131;SDS011;67381;47.672;9.380;2023-04-03T06:36:24;5.25;;;2.83;;
78131;SDS011;67381;47.672;9.380;2023-04-03T06:38:51;5.70;;;2.75;;
78131;SDS011;67381;47.672;9.380;2023-04-03T06:41:18;6.43;;;2.95;;
78131;SDS011;67381;47.672;9.380;2023-04-03T06:43:45;6.28;;;2.90;;
78131;SDS011;67381;47.672;9.380;2023-04-03T06:46:17;4.60;;;2.70;;
78131;SDS011;67381;47.672;9.380;2023-04-03T06:48:45;5.30;;;2.88;;
78131;SDS011;67381;47.672;9.380;2023-04-03T06:53:48;5.45;;;2.88;;
78131;SDS011;67381;47.672;9.380;2023-04-03T06:56:16;5.78;;;3.25;;
78131;SDS011;67381;47.672;9.380;2023-04-03T06:58:44;5.70;;;3.05;;
78131;SDS011;67381;47.672;9.380;2023-04-03T07:01:12;4.78;;;2.63;;
78131;SDS011;67381;47.672;9.380;2023-04-03T07:03:41;4.85;;;2.58;;
78131;SDS011;67381;47.672;9.380;2023-04-03T07:06:09;4.95;;;2.72;;
78131;SDS011;67381;47.672;9.380;2023-04-03T07:08:38;5.60;;;3.42;;
78131;SDS011;67381;47.672;9.380;2023-04-03T07:11:05;6.05;;;2.90;;
78131;SDS011;67381;47.672;9.380;2023-04-03T07:13:33;5.65;;;3.03;;
78131;SDS011;67381;47.672;9.380;2023-04-03T07:16:00;4.68;;;2.83;;
78131;SDS011;67381;47.672;9.380;2023-04-03T07:18:28;5.95;;;3.25;;
78131;SDS011;67381;47.672;9.380;2023-04-03T07:20:55;5.45;;;2.78;;
78131;SDS011;67381;47.672;9.380;2023-04-03T07:23:22;5.38;;;3.17;;
78131;SDS011;67381;47.672;9.380;2023-04-03T07:25:50;6.03;;;3.47;;
78131;SDS011;67381;47.672;9.380;2023-04-03T07:28:19;5.75;;;3.42;;
78131;SDS011;67381;47.672;9.380;2023-04-03T07:30:48;4.18;;;2.75;;
78131;SDS011;67381;47.672;9.380;2023-04-03T07:33:17;5.65;;;3.47;;
78131;SDS011;67381;47.672;9.380;2023-04-03T07:35:45;6.38;;;3.75;;
78131;SDS011;67381;47.672;9.380;2023-04-03T07:38:13;8.02;;;3.63;;
78131;SDS011;67381;47.672;9.380;2023-04-03T07:40:40;5.85;;;3.33;;
78131;SDS011;67381;47.672;9.380;2023-04-03T07:43:16;7.13;;;3.35;;
78131;SDS011;67381;47.672;9.380;2023-04-03T07:45:44;5.93;;;3.15;;
78131;SDS011;67381;47.672;9.380;2023-04-03T07:48:12;6.55;;;3.63;;
78131;SDS011;67381;47.672;9.380;2023-04-03T07:50:40;6.45;;;3.45;;
78131;SDS011;67381;47.672;9.380;2023-04-03T07:53:07;5.53;;;3.38;;
78131;SDS011;67381;47.672;9.380;2023-04-03T07:55:35;5.97;;;3.47;;
78131;SDS011;67381;47.672;9.380;2023-04-03T07:58:10;6.47;;;3.33;;
78131;SDS011;67381;47.672;9.380;2023-04-03T08:00:38;6.32;;;3.15;;
78131;SDS011;67381;47.672;9.380;2023-04-03T08:03:06;6.22;;;3.28;;
78131;SDS011;67381;47.672;9.380;2023-04-03T08:05:38;5.22;;;2.97;;
78131;SDS011;67381;47.672;9.380;2023-04-03T08:08:10;6.07;;;3.28;;
78131;SDS011;67381;47.672;9.380;2023-04-03T08:10:39;6.10;;;3.40;;
78131;SDS011;67381;47.672;9.380;2023-04-03T08:13:07;5.80;;;3.22;;
78131;SDS011;67381;47.672;9.380;2023-04-03T08:15:34;8.18;;;3.80;;
78131;SDS011;67381;47.672;9.380;2023-04-03T08:18:02;7.03;;;3.80;;
78131;SDS011;67381;47.672;9.380;2023-04-03T08:20:30;5.93;;;3.67;;
78131;SDS011;67381;47.672;9.380;2023-04-03T08:22:57;8.02;;;3.60;;
78131;SDS011;67381;47.672;9.380;2023-04-03T08:25:25;5.38;;;3.40;;
78131;SDS011;67381;47.672;9.380;2023-04-03T08:27:52;5.78;;;3.53;;
78131;SDS011;67381;47.672;9.380;2023-04-03T08:30:19;7.43;;;3.90;;
78131;SDS011;67381;47.672;9.380;2023-04-03T08:32:47;6.13;;;3.55;;
78131;SDS011;67381;47.672;9.380;2023-04-03T08:35:14;5.80;;;3.58;;
78131;SDS011;67381;47.672;9.380;2023-04-03T08:37:41;10.45;;;4.50;;
78131;SDS011;67381;47.672;9.380;2023-04-03T08:40:12;7.15;;;4.40;;
78131;SDS011;67381;47.672;9.380;2023-04-03T08:45:26;5.97;;;3.50;;
78131;SDS011;67381;47.672;9.380;2023-04-03T08:48:19;5.47;;;3.35;;
78131;SDS011;67381;47.672;9.380;2023-04-03T08:51:13;7.55;;;3.70;;
78131;SDS011;67381;47.672;9.380;2023-04-03T08:53:43;6.55;;;3.97;;
78131;SDS011;67381;47.672;9.380;2023-04-03T08:56:16;6.45;;;3.30;;
78131;SDS011;67381;47.672;9.380;2023-04-03T08:58:49;10.13;;;5.43;;
78131;SDS011;67381;47.672;9.380;2023-04-03T09:01:24;5.30;;;3.22;;
78131;SDS011;67381;47.672;9.380;2023-04-03T09:03:54;6.68;;;4.00;;
78131;SDS011;67381;47.672;9.380;2023-04-03T09:06:23;8.05;;;3.78;;
78131;SDS011;67381;47.672;9.380;2023-04-03T09:09:12;5.72;;;3.80;;
78131;SDS011;67381;47.672;9.380;2023-04-03T09:17:39;5.18;;;2.92;;
78131;SDS011;67381;47.672;9.380;2023-04-03T09:20:17;5.93;;;3.60;;
78131;SDS011;67381;47.672;9.380;2023-04-03T09:22:48;6.05;;;3.40;;
78131;SDS011;67381;47.672;9.380;2023-04-03T09:25:27;7.97;;;3.20;;
78131;SDS011;67381;47.672;9.380;2023-04-03T09:28:00;6.45;;;3.10;;
78131;SDS011;67381;47.672;9.380;2023-04-03T09:30:28;7.68;;;4.22;;
78131;SDS011;67381;47.672;9.380;2023-04-03T09:32:56;6.75;;;3.75;;
78131;SDS011;67381;47.672;9.380;2023-04-03T09:38:14;5.85;;;3.42;;
78131;SDS011;67381;47.672;9.380;2023-04-03T09:41:05;7.50;;;3.20;;
78131;SDS011;67381;47.672;9.380;2023-04-03T09:43:33;6.88;;;3.22;;
78131;SDS011;67381;47.672;9.380;2023-04-03T09:46:46;5.38;;;3.40;;
78131;SDS011;67381;47.672;9.380;2023-04-03T09:49:02;6.80;;;3.25;;
78131;SDS011;67381;47.672;9.380;2023-04-03T09:51:34;4.97;;;2.90;;
78131;SDS011;67381;47.672;9.380;2023-04-03T09:54:24;6.05;;;3.10;;
78131;SDS011;67381;47.672;9.380;2023-04-03T09:57:01;6.38;;;2.78;;
78131;SDS011;67381;47.672;9.380;2023-04-03T09:59:31;5.03;;;3.28;;
78131;SDS011;67381;47.672;9.380;2023-04-03T10:02:00;5.93;;;3.40;;
78131;SDS011;67381;47.672;9.380;2023-04-03T10:04:36;7.97;;;3.53;;
78131;SDS011;67381;47.672;9.380;2023-04-03T10:07:25;5.90;;;3.13;;
78131;SDS011;67381;47.672;9.380;2023-04-03T10:13:03;5.90;;;3.05;;
78131;SDS011;67381;47.672;9.380;2023-04-03T10:15:40;6.32;;;3.47;;
78131;SDS011;67381;47.672;9.380;2023-04-03T10:21:10;5.32;;;3.05;;
78131;SDS011;67381;47.672;9.380;2023-04-03T10:23:49;5.40;;;2.75;;
78131;SDS011;67381;47.672;9.380;2023-04-03T10:34:46;6.88;;;2.80;;
78131;SDS011;67381;47.672;9.380;2023-04-03T10:37:29;6.18;;;2.97;;
78131;SDS011;67381;47.672;9.380;2023-04-03T10:40:22;5.35;;;2.90;;
78131;SDS011;67381;47.672;9.380;2023-04-03T10:43:06;4.97;;;2.97;;
78131;SDS011;67381;47.672;9.380;2023-04-03T10:48:17;5.82;;;3.13;;
78131;SDS011;67381;47.672;9.380;2023-04-03T10:50:58;5.75;;;3.00;;
78131;SDS011;67381;47.672;9.380;2023-04-03T10:53:44;8.95;;;2.78;;
78131;SDS011;67381;47.672;9.380;2023-04-03T10:59:32;5.07;;;3.03;;
78131;SDS011;67381;47.672;9.380;2023-04-03T11:02:00;7.43;;;2.85;;
78131;SDS011;67381;47.672;9.380;2023-04-03T11:04:33;5.38;;;2.72;;
78131;SDS011;67381;47.672;9.380;2023-04-03T11:09:43;6.15;;;2.42;;
78131;SDS011;67381;47.672;9.380;2023-04-03T11:12:17;3.97;;;2.20;;
78131;SDS011;67381;47.672;9.380;2023-04-03T11:14:49;4.20;;;2.00;;
78131;SDS011;67381;47.672;9.380;2023-04-03T11:19:48;6.97;;;2.08;;
78131;SDS011;67381;47.672;9.380;2023-04-03T11:22:28;3.38;;;2.03;;
78131;SDS011;67381;47.672;9.380;2023-04-03T11:25:02;4.28;;;1.95;;
78131;SDS011;67381;47.672;9.380;2023-04-03T11:30:18;4.13;;;2.35;;
78131;SDS011;67381;47.672;9.380;2023-04-03T11:33:03;3.42;;;1.83;;
78131;SDS011;67381;47.672;9.380;2023-04-03T11:35:37;4.80;;;2.42;;
78131;SDS011;67381;47.672;9.380;2023-04-03T11:38:05;3.55;;;1.90;;
78131;SDS011;67381;47.672;9.380;2023-04-03T11:40:34;5.38;;;2.10;;
78131;SDS011;67381;47.672;9.380;2023-04-03T11:43:04;3.35;;;1.70;;
78131;SDS011;67381;47.672;9.380;2023-04-03T11:45:35;3.85;;;2.03;;
78131;SDS011;67381;47.672;9.380;2023-04-03T11:53:40;4.95;;;2.38;;
78131;SDS011;67381;47.672;9.380;2023-04-03T12:01:53;3.95;;;1.90;;
78131;SDS011;67381;47.672;9.380;2023-04-03T12:04:23;5.10;;;2.47;;
78131;SDS011;67381;47.672;9.380;2023-04-03T12:06:59;7.00;;;2.10;;
78131;SDS011;67381;47.672;9.380;2023-04-03T12:17:52;4.00;;;2.13;;
78131;SDS011;67381;47.672;9.380;2023-04-03T12:20:46;3.58;;;1.95;;
78131;SDS011;67381;47.672;9.380;2023-04-03T12:23:23;5.57;;;2.50;;
78131;SDS011;67381;47.672;9.380;2023-04-03T12:25:50;4.53;;;1.85;;
78131;SDS011;67381;47.672;9.380;2023-04-03T12:28:18;4.55;;;1.88;;
78131;SDS011;67381;47.672;9.380;2023-04-03T12:30:46;5.40;;;2.30;;
78131;SDS011;67381;47.672;9.380;2023-04-03T12:33:17;4.13;;;1.95;;
78131;SDS011;67381;47.672;9.380;2023-04-03T12:46:55;6.97;;;1.90;;
78131;SDS011;67381;47.672;9.380;2023-04-03T12:51:58;6.13;;;2.53;;
78131;SDS011;67381;47.672;9.380;2023-04-03T12:54:26;5.07;;;2.30;;
78131;SDS011;67381;47.672;9.380;2023-04-03T12:59:50;5.05;;;2.28;;
78131;SDS011;67381;47.672;9.380;2023-04-03T13:04:51;3.78;;;1.88;;
78131;SDS011;67381;47.672;9.380;2023-04-03T13:07:23;3.58;;;1.80;;
78131;SDS011;67381;47.672;9.380;2023-04-03T13:10:13;4.13;;;1.50;;
78131;SDS011;67381;47.672;9.380;2023-04-03T13:12:46;3.60;;;1.90;;
78131;SDS011;67381;47.672;9.380;2023-04-03T13:15:16;5.75;;;1.90;;
78131;SDS011;67381;47.672;9.380;2023-04-03T13:17:46;3.15;;;1.85;;
78131;SDS011;67381;47.672;9.380;2023-04-03T13:23:02;4.03;;;1.65;;
78131;SDS011;67381;47.672;9.380;2023-04-03T13:25:33;4.03;;;2.00;;
78131;SDS011;67381;47.672;9.380;2023-04-03T13:28:03;3.83;;;2.17;;
78131;SDS011;67381;47.672;9.380;2023-04-03T13:30:38;5.80;;;1.88;;
78131;SDS011;67381;47.672;9.380;2023-04-03T13:33:18;3.40;;;1.90;;
78131;SDS011;67381;47.672;9.380;2023-04-03T13:35:54;6.30;;;2.28;;
78131;SDS011;67381;47.672;9.380;2023-04-03T13:38:28;3.58;;;1.85;;
78131;SDS011;67381;47.672;9.380;2023-04-03T13:40:59;6.43;;;2.30;;
78131;SDS011;67381;47.672;9.380;2023-04-03T13:43:36;3.63;;;1.92;;
78131;SDS011;67381;47.672;9.380;2023-04-03T13:48:35;5.10;;;2.20;;
78131;SDS011;67381;47.672;9.380;2023-04-03T13:53:44;4.57;;;2.05;;
78131;SDS011;67381;47.672;9.380;2023-04-03T13:56:19;3.42;;;1.77;;
78131;SDS011;67381;47.672;9.380;2023-04-03T13:58:58;6.25;;;2.03;;
78131;SDS011;67381;47.672;9.380;2023-04-03T14:01:47;4.28;;;1.80;;
78131;SDS011;67381;47.672;9.380;2023-04-03T14:04:23;4.35;;;2.00;;
78131;SDS011;67381;47.672;9.380;2023-04-03T14:06:52;3.95;;;1.83;;
78131;SDS011;67381;47.672;9.380;2023-04-03T14:09:20;6.45;;;2.35;;
78131;SDS011;67381;47.672;9.380;2023-04-03T14:11:50;3.53;;;1.90;;
78131;SDS011;67381;47.672;9.380;2023-04-03T14:14:32;4.22;;;2.30;;
78131;SDS011;67381;47.672;9.380;2023-04-03T14:17:17;4.88;;;1.95;;
78131;SDS011;67381;47.672;9.380;2023-04-03T14:19:49;5.65;;;2.38;;
78131;SDS011;67381;47.672;9.380;2023-04-03T14:24:48;3.55;;;1.80;;
78131;SDS011;67381;47.672;9.380;2023-04-03T14:29:54;4.00;;;2.30;;
78131;SDS011;67381;47.672;9.380;2023-04-03T14:32:23;4.43;;;2.45;;
78131;SDS011;67381;47.672;9.380;2023-04-03T14:34:52;3.92;;;2.05;;
78131;SDS011;67381;47.672;9.380;2023-04-03T14:37:21;3.83;;;2.05;;
78131;SDS011;67381;47.672;9.380;2023-04-03T14:39:51;4.38;;;1.73;;
78131;SDS011;67381;47.672;9.380;2023-04-03T14:42:24;3.10;;;1.98;;
78131;SDS011;67381;47.672;9.380;2023-04-03T14:44:57;3.75;;;1.92;;
78131;SDS011;67381;47.672;9.380;2023-04-03T14:47:25;3.05;;;1.77;;
78131;SDS011;67381;47.672;9.380;2023-04-03T14:49:57;4.05;;;1.73;;
78131;SDS011;67381;47.672;9.380;2023-04-03T14:52:32;3.65;;;1.70;;
78131;SDS011;67381;47.672;9.380;2023-04-03T14:55:02;4.40;;;1.80;;
78131;SDS011;67381;47.672;9.380;2023-04-03T14:57:30;5.97;;;1.52;;
78131;SDS011;67381;47.672;9.380;2023-04-03T14:59:58;4.70;;;2.65;;
78131;SDS011;67381;47.672;9.380;2023-04-03T15:02:27;4.05;;;2.00;;
78131;SDS011;67381;47.672;9.380;2023-04-03T15:04:59;4.10;;;2.00;;
78131;SDS011;67381;47.672;9.380;2023-04-03T15:07:28;2.67;;;1.33;;
78131;SDS011;67381;47.672;9.380;2023-04-03T15:09:56;3.88;;;2.05;;
78131;SDS011;67381;47.672;9.380;2023-04-03T15:12:24;3.50;;;2.20;;
78131;SDS011;67381;47.672;9.380;2023-04-03T15:14:52;4.22;;;2.08;;
78131;SDS011;67381;47.672;9.380;2023-04-03T15:17:23;4.88;;;1.90;;
78131;SDS011;67381;47.672;9.380;2023-04-03T15:19:50;4.40;;;1.90;;
78131;SDS011;67381;47.672;9.380;2023-04-03T15:22:18;4.35;;;2.13;;
78131;SDS011;67381;47.672;9.380;2023-04-03T15:24:46;3.47;;;1.95;;
78131;SDS011;67381;47.672;9.380;2023-04-03T15:27:14;3.38;;;1.80;;
78131;SDS011;67381;47.672;9.380;2023-04-03T15:29:42;4.13;;;2.22;;
78131;SDS011;67381;47.672;9.380;2023-04-03T15:32:10;3.90;;;1.92;;
78131;SDS011;67381;47.672;9.380;2023-04-03T15:34:38;4.32;;;2.00;;
78131;SDS011;67381;47.672;9.380;2023-04-03T15:37:05;4.72;;;2.30;;
78131;SDS011;67381;47.672;9.380;2023-04-03T15:39:33;3.90;;;2.15;;
78131;SDS011;67381;47.672;9.380;2023-04-03T15:42:00;3.83;;;2.05;;
78131;SDS011;67381;47.672;9.380;2023-04-03T15:44:33;8.05;;;3.50;;
78131;SDS011;67381;47.672;9.380;2023-04-03T15:47:00;6.00;;;3.15;;
78131;SDS011;67381;47.672;9.380;2023-04-03T15:49:28;60.13;;;26.67;;
78131;SDS011;67381;47.672;9.380;2023-04-03T15:51:57;76.47;;;34.97;;
78131;SDS011;67381;47.672;9.380;2023-04-03T15:54:24;91.35;;;41.72;;
78131;SDS011;67381;47.672;9.380;2023-04-03T15:56:52;42.42;;;18.25;;
78131;SDS011;67381;47.672;9.380;2023-04-03T15:59:20;32.67;;;10.73;;
78131;SDS011;67381;47.672;9.380;2023-04-03T16:01:48;4.85;;;2.65;;
78131;SDS011;67381;47.672;9.380;2023-04-03T16:04:15;7.75;;;2.85;;
78131;SDS011;67381;47.672;9.380;2023-04-03T16:06:43;6.68;;;3.65;;
78131;SDS011;67381;47.672;9.380;2023-04-03T16:09:10;4.90;;;2.63;;
78131;SDS011;67381;47.672;9.380;2023-04-03T16:11:37;4.65;;;2.35;;
78131;SDS011;67381;47.672;9.380;2023-04-03T16:14:08;3.38;;;2.15;;
78131;SDS011;67381;47.672;9.380;2023-04-03T16:16:35;3.60;;;1.90;;
78131;SDS011;67381;47.672;9.380;2023-04-03T16:19:03;5.97;;;2.00;;
78131;SDS011;67381;47.672;9.380;2023-04-03T16:21:31;4.45;;;2.40;;
78131;SDS011;67381;47.672;9.380;2023-04-03T16:23:59;4.35;;;2.42;;
78131;SDS011;67381;47.672;9.380;2023-04-03T16:26:26;3.65;;;2.22;;
78131;SDS011;67381;47.672;9.380;2023-04-03T16:28:54;3.90;;;2.20;;
78131;SDS011;67381;47.672;9.380;2023-04-03T16:31:21;3.60;;;1.90;;
78131;SDS011;67381;47.672;9.380;2023-04-03T16:33:49;17.02;;;5.05;;
78131;SDS011;67381;47.672;9.380;2023-04-03T16:36:17;5.60;;;2.50;;
78131;SDS011;67381;47.672;9.380;2023-04-03T16:38:44;3.50;;;2.08;;
78131;SDS011;67381;47.672;9.380;2023-04-03T16:41:12;5.70;;;2.53;;
78131;SDS011;67381;47.672;9.380;2023-04-03T16:43:39;4.97;;;2.08;;
78131;SDS011;67381;47.672;9.380;2023-04-03T16:46:11;4.57;;;2.38;;
78131;SDS011;67381;47.672;9.380;2023-04-03T16:48:39;6.35;;;2.65;;
78131;SDS011;67381;47.672;9.380;2023-04-03T16:51:06;5.20;;;2.25;;